sensor_id;sensor_type;location;lat;lon;timestamp;P1;durP1;ratioP1;P2;durP2;ratioP2
76103;SDS011;64831;44.870;37.336;2023-07-13T00:00:11;9.15;;;6.63;;
76103;SDS011;64831;44.870;37.336;2023-07-13T00:02:41;11.18;;;7.05;;
76103;SDS011;64831;44.870;37.336;2023-07-13T00:05:07;12.73;;;7.03;;
76103;SDS011;64831;44.870;37.336;2023-07-13T00:07:33;10.32;;;6.82;;
76103;SDS011;64831;44.870;37.336;2023-07-13T00:10:00;7.22;;;5.95;;
76103;SDS011;64831;44.870;37.336;2023-07-13T00:12:29;10.00;;;6.72;;
76103;SDS011;64831;44.870;37.336;2023-07-13T00:14:58;8.50;;;6.65;;
76103;SDS011;64831;44.870;37.336;2023-07-13T00:17:26;8.52;;;6.00;;
76103;SDS011;64831;44.870;37.336;2023-07-13T00:19:52;11.50;;;6.60;;
76103;SDS011;64831;44.870;37.336;2023-07-13T00:22:19;7.20;;;6.10;;
76103;SDS011;64831;44.870;37.336;2023-07-13T00:24:45;11.85;;;6.00;;
76103;SDS011;64831;44.870;37.336;2023-07-13T00:27:11;8.80;;;6.50;;
76103;SDS011;64831;44.870;37.336;2023-07-13T00:29:37;10.55;;;7.43;;
76103;SDS011;64831;44.870;37.336;2023-07-13T00:32:04;8.85;;;6.22;;
76103;SDS011;64831;44.870;37.336;2023-07-13T00:34:31;7.97;;;5.80;;
76103;SDS011;64831;44.870;37.336;2023-07-13T00:36:57;9.65;;;5.70;;
76103;SDS011;64831;44.870;37.336;2023-07-13T00:39:23;9.13;;;5.15;;
76103;SDS011;64831;44.870;37.336;2023-07-13T00:41:50;8.02;;;5.55;;
76103;SDS011;64831;44.870;37.336;2023-07-13T00:44:17;10.50;;;5.70;;
76103;SDS011;64831;44.870;37.336;2023-07-13T00:46:43;5.82;;;4.60;;
76103;SDS011;64831;44.870;37.336;2023-07-13T00:49:12;12.18;;;6.78;;
76103;SDS011;64831;44.870;37.336;2023-07-13T00:51:48;7.45;;;5.97;;
76103;SDS011;64831;44.870;37.336;2023-07-13T00:54:18;7.68;;;5.53;;
76103;SDS011;64831;44.870;37.336;2023-07-13T00:57:00;8.52;;;6.20;;
76103;SDS011;64831;44.870;37.336;2023-07-13T00:59:29;7.90;;;5.60;;
76103;SDS011;64831;44.870;37.336;2023-07-13T01:01:56;9.98;;;5.63;;
76103;SDS011;64831;44.870;37.336;2023-07-13T01:04:25;11.95;;;6.07;;
76103;SDS011;64831;44.870;37.336;2023-07-13T01:06:52;7.85;;;5.85;;
76103;SDS011;64831;44.870;37.336;2023-07-13T01:09:19;8.43;;;5.60;;
76103;SDS011;64831;44.870;37.336;2023-07-13T01:11:45;8.57;;;6.38;;
76103;SDS011;64831;44.870;37.336;2023-07-13T01:14:11;9.60;;;6.55;;
76103;SDS011;64831;44.870;37.336;2023-07-13T01:16:37;8.98;;;6.38;;
76103;SDS011;64831;44.870;37.336;2023-07-13T01:19:08;8.00;;;6.30;;
76103;SDS011;64831;44.870;37.336;2023-07-13T01:22:01;9.13;;;6.55;;
76103;SDS011;64831;44.870;37.336;2023-07-13T01:24:37;7.88;;;6.65;;
76103;SDS011;64831;44.870;37.336;2023-07-13T01:27:05;8.32;;;6.68;;
76103;SDS011;64831;44.870;37.336;2023-07-13T01:29:33;10.57;;;6.78;;
76103;SDS011;64831;44.870;37.336;2023-07-13T01:32:06;10.82;;;7.00;;
76103;SDS011;64831;44.870;37.336;2023-07-13T01:34:33;10.30;;;6.75;;
76103;SDS011;64831;44.870;37.336;2023-07-13T01:36:59;13.18;;;7.68;;
76103;SDS011;64831;44.870;37.336;2023-07-13T01:39:27;11.68;;;6.80;;
76103;SDS011;64831;44.870;37.336;2023-07-13T01:41:53;8.27;;;6.65;;
76103;SDS011;64831;44.870;37.336;2023-07-13T01:44:19;9.98;;;6.65;;
76103;SDS011;64831;44.870;37.336;2023-07-13T01:46:45;8.32;;;6.30;;
76103;SDS011;64831;44.870;37.336;2023-07-13T01:49:11;13.45;;;6.95;;
76103;SDS011;64831;44.870;37.336;2023-07-13T01:51:37;12.52;;;7.00;;
76103;SDS011;64831;44.870;37.336;2023-07-13T01:54:03;8.80;;;6.40;;
76103;SDS011;64831;44.870;37.336;2023-07-13T01:56:29;11.10;;;6.97;;
76103;SDS011;64831;44.870;37.336;2023-07-13T01:58:55;7.95;;;5.35;;
76103;SDS011;64831;44.870;37.336;2023-07-13T02:01:22;10.02;;;6.68;;
76103;SDS011;64831;44.870;37.336;2023-07-13T02:03:48;10.45;;;6.78;;
76103;SDS011;64831;44.870;37.336;2023-07-13T02:06:13;10.52;;;7.28;;
76103;SDS011;64831;44.870;37.336;2023-07-13T02:08:40;10.05;;;7.00;;
76103;SDS011;64831;44.870;37.336;2023-07-13T02:11:08;12.95;;;6.53;;
76103;SDS011;64831;44.870;37.336;2023-07-13T02:13:34;9.13;;;7.05;;
76103;SDS011;64831;44.870;37.336;2023-07-13T02:16:00;10.23;;;8.10;;
76103;SDS011;64831;44.870;37.336;2023-07-13T02:18:26;9.73;;;6.90;;
76103;SDS011;64831;44.870;37.336;2023-07-13T02:20:52;9.13;;;7.03;;
76103;SDS011;64831;44.870;37.336;2023-07-13T02:23:18;11.20;;;6.72;;
76103;SDS011;64831;44.870;37.336;2023-07-13T02:25:45;10.25;;;7.07;;
76103;SDS011;64831;44.870;37.336;2023-07-13T02:28:11;10.80;;;7.45;;
76103;SDS011;64831;44.870;37.336;2023-07-13T02:30:37;10.75;;;7.32;;
76103;SDS011;64831;44.870;37.336;2023-07-13T02:33:04;7.97;;;6.65;;
76103;SDS011;64831;44.870;37.336;2023-07-13T02:35:30;9.85;;;6.80;;
76103;SDS011;64831;44.870;37.336;2023-07-13T02:37:57;9.90;;;7.18;;
76103;SDS011;64831;44.870;37.336;2023-07-13T02:40:23;9.95;;;7.57;;
76103;SDS011;64831;44.870;37.336;2023-07-13T02:42:51;10.68;;;7.15;;
76103;SDS011;64831;44.870;37.336;2023-07-13T02:45:17;15.13;;;7.55;;
76103;SDS011;64831;44.870;37.336;2023-07-13T02:47:43;8.65;;;6.50;;
76103;SDS011;64831;44.870;37.336;2023-07-13T02:50:10;8.77;;;6.70;;
76103;SDS011;64831;44.870;37.336;2023-07-13T02:52:36;8.32;;;6.68;;
76103;SDS011;64831;44.870;37.336;2023-07-13T02:55:02;10.45;;;6.78;;
76103;SDS011;64831;44.870;37.336;2023-07-13T02:57:28;21.67;;;15.52;;
76103;SDS011;64831;44.870;37.336;2023-07-13T02:59:55;10.52;;;7.53;;
76103;SDS011;64831;44.870;37.336;2023-07-13T03:02:22;10.52;;;7.20;;
76103;SDS011;64831;44.870;37.336;2023-07-13T03:04:48;9.63;;;7.03;;
76103;SDS011;64831;44.870;37.336;2023-07-13T03:07:14;9.98;;;6.88;;
76103;SDS011;64831;44.870;37.336;2023-07-13T03:09:41;11.70;;;7.10;;
76103;SDS011;64831;44.870;37.336;2023-07-13T03:12:08;10.45;;;6.75;;
76103;SDS011;64831;44.870;37.336;2023-07-13T03:14:35;8.55;;;6.60;;
76103;SDS011;64831;44.870;37.336;2023-07-13T03:17:03;10.68;;;7.07;;
76103;SDS011;64831;44.870;37.336;2023-07-13T03:19:33;8.30;;;6.45;;
76103;SDS011;64831;44.870;37.336;2023-07-13T03:22:02;8.15;;;6.82;;
76103;SDS011;64831;44.870;37.336;2023-07-13T03:24:29;8.38;;;6.57;;
76103;SDS011;64831;44.870;37.336;2023-07-13T03:26:56;10.45;;;6.85;;
76103;SDS011;64831;44.870;37.336;2023-07-13T03:29:22;8.05;;;7.13;;
76103;SDS011;64831;44.870;37.336;2023-07-13T03:31:49;11.93;;;6.88;;
76103;SDS011;64831;44.870;37.336;2023-07-13T03:34:16;9.35;;;6.80;;
76103;SDS011;64831;44.870;37.336;2023-07-13T03:36:42;9.43;;;6.80;;
76103;SDS011;64831;44.870;37.336;2023-07-13T03:39:10;10.75;;;6.53;;
76103;SDS011;64831;44.870;37.336;2023-07-13T03:41:48;11.88;;;6.63;;
76103;SDS011;64831;44.870;37.336;2023-07-13T03:44:15;14.32;;;8.45;;
76103;SDS011;64831;44.870;37.336;2023-07-13T03:46:42;9.05;;;6.80;;
76103;SDS011;64831;44.870;37.336;2023-07-13T03:49:08;10.57;;;6.70;;
76103;SDS011;64831;44.870;37.336;2023-07-13T03:51:34;8.95;;;6.82;;
76103;SDS011;64831;44.870;37.336;2023-07-13T03:54:00;9.27;;;6.85;;
76103;SDS011;64831;44.870;37.336;2023-07-13T03:56:28;9.77;;;7.00;;
76103;SDS011;64831;44.870;37.336;2023-07-13T03:58:56;10.20;;;7.55;;
76103;SDS011;64831;44.870;37.336;2023-07-13T04:01:23;10.95;;;7.30;;
76103;SDS011;64831;44.870;37.336;2023-07-13T04:03:50;13.73;;;8.00;;
76103;SDS011;64831;44.870;37.336;2023-07-13T04:06:22;9.30;;;7.18;;
76103;SDS011;64831;44.870;37.336;2023-07-13T04:08:51;10.20;;;7.55;;
76103;SDS011;64831;44.870;37.336;2023-07-13T04:11:20;12.23;;;7.28;;
76103;SDS011;64831;44.870;37.336;2023-07-13T04:13:48;13.50;;;7.53;;
76103;SDS011;64831;44.870;37.336;2023-07-13T04:16:15;14.88;;;8.05;;
76103;SDS011;64831;44.870;37.336;2023-07-13T04:18:42;9.00;;;7.25;;
76103;SDS011;64831;44.870;37.336;2023-07-13T04:21:08;12.73;;;7.28;;
76103;SDS011;64831;44.870;37.336;2023-07-13T04:23:35;10.05;;;7.28;;
76103;SDS011;64831;44.870;37.336;2023-07-13T04:26:01;12.93;;;7.68;;
76103;SDS011;64831;44.870;37.336;2023-07-13T04:28:27;13.65;;;7.50;;
76103;SDS011;64831;44.870;37.336;2023-07-13T04:30:53;8.95;;;6.68;;
76103;SDS011;64831;44.870;37.336;2023-07-13T04:33:20;8.02;;;6.68;;
76103;SDS011;64831;44.870;37.336;2023-07-13T04:35:52;15.40;;;9.00;;
76103;SDS011;64831;44.870;37.336;2023-07-13T04:38:24;16.02;;;9.98;;
76103;SDS011;64831;44.870;37.336;2023-07-13T04:40:54;11.48;;;7.15;;
76103;SDS011;64831;44.870;37.336;2023-07-13T04:43:22;13.75;;;7.47;;
76103;SDS011;64831;44.870;37.336;2023-07-13T04:45:49;11.05;;;7.13;;
76103;SDS011;64831;44.870;37.336;2023-07-13T04:48:16;10.35;;;6.95;;
76103;SDS011;64831;44.870;37.336;2023-07-13T04:50:42;8.60;;;6.38;;
76103;SDS011;64831;44.870;37.336;2023-07-13T04:53:08;7.43;;;5.47;;
76103;SDS011;64831;44.870;37.336;2023-07-13T04:55:36;8.50;;;6.78;;
76103;SDS011;64831;44.870;37.336;2023-07-13T04:58:02;7.88;;;6.75;;
76103;SDS011;64831;44.870;37.336;2023-07-13T05:00:29;7.82;;;6.75;;
76103;SDS011;64831;44.870;37.336;2023-07-13T05:02:56;14.70;;;7.57;;
76103;SDS011;64831;44.870;37.336;2023-07-13T05:05:23;13.40;;;6.95;;
76103;SDS011;64831;44.870;37.336;2023-07-13T05:07:50;9.32;;;7.10;;
76103;SDS011;64831;44.870;37.336;2023-07-13T05:10:16;6.85;;;4.63;;
76103;SDS011;64831;44.870;37.336;2023-07-13T05:12:42;8.50;;;7.30;;
76103;SDS011;64831;44.870;37.336;2023-07-13T05:15:08;15.05;;;7.95;;
76103;SDS011;64831;44.870;37.336;2023-07-13T05:17:34;9.30;;;7.45;;
76103;SDS011;64831;44.870;37.336;2023-07-13T05:20:00;11.32;;;7.65;;
76103;SDS011;64831;44.870;37.336;2023-07-13T05:22:26;9.48;;;7.70;;
76103;SDS011;64831;44.870;37.336;2023-07-13T05:24:52;13.00;;;6.95;;
76103;SDS011;64831;44.870;37.336;2023-07-13T05:27:18;11.57;;;7.80;;
76103;SDS011;64831;44.870;37.336;2023-07-13T05:29:44;10.73;;;6.88;;
76103;SDS011;64831;44.870;37.336;2023-07-13T05:32:09;13.10;;;6.82;;
76103;SDS011;64831;44.870;37.336;2023-07-13T05:34:35;11.57;;;7.57;;
76103;SDS011;64831;44.870;37.336;2023-07-13T05:37:01;9.50;;;6.05;;
76103;SDS011;64831;44.870;37.336;2023-07-13T05:39:27;7.50;;;6.32;;
76103;SDS011;64831;44.870;37.336;2023-07-13T05:41:53;9.02;;;7.30;;
76103;SDS011;64831;44.870;37.336;2023-07-13T05:44:19;11.50;;;7.22;;
76103;SDS011;64831;44.870;37.336;2023-07-13T05:46:45;11.90;;;7.88;;
76103;SDS011;64831;44.870;37.336;2023-07-13T05:49:11;10.45;;;7.00;;
76103;SDS011;64831;44.870;37.336;2023-07-13T05:51:37;6.55;;;4.82;;
76103;SDS011;64831;44.870;37.336;2023-07-13T05:54:03;5.78;;;4.82;;
76103;SDS011;64831;44.870;37.336;2023-07-13T05:56:29;5.70;;;4.78;;
76103;SDS011;64831;44.870;37.336;2023-07-13T05:58:55;10.40;;;5.65;;
76103;SDS011;64831;44.870;37.336;2023-07-13T06:01:21;9.10;;;5.40;;
76103;SDS011;64831;44.870;37.336;2023-07-13T06:03:48;5.85;;;5.10;;
76103;SDS011;64831;44.870;37.336;2023-07-13T06:06:15;5.70;;;4.35;;
76103;SDS011;64831;44.870;37.336;2023-07-13T06:08:41;8.35;;;4.30;;
76103;SDS011;64831;44.870;37.336;2023-07-13T06:11:21;5.75;;;4.00;;
76103;SDS011;64831;44.870;37.336;2023-07-13T06:13:48;17.88;;;10.75;;
76103;SDS011;64831;44.870;37.336;2023-07-13T06:16:15;6.85;;;5.45;;
76103;SDS011;64831;44.870;37.336;2023-07-13T06:18:41;9.40;;;5.47;;
76103;SDS011;64831;44.870;37.336;2023-07-13T06:21:08;11.45;;;4.70;;
76103;SDS011;64831;44.870;37.336;2023-07-13T06:23:36;8.93;;;5.20;;
76103;SDS011;64831;44.870;37.336;2023-07-13T06:26:02;9.73;;;4.88;;
76103;SDS011;64831;44.870;37.336;2023-07-13T06:28:29;8.57;;;5.35;;
76103;SDS011;64831;44.870;37.336;2023-07-13T06:30:57;7.72;;;5.00;;
76103;SDS011;64831;44.870;37.336;2023-07-13T06:33:23;9.95;;;7.00;;
76103;SDS011;64831;44.870;37.336;2023-07-13T06:35:49;8.88;;;4.90;;
76103;SDS011;64831;44.870;37.336;2023-07-13T06:38:15;8.95;;;4.90;;
76103;SDS011;64831;44.870;37.336;2023-07-13T06:40:41;6.20;;;4.72;;
76103;SDS011;64831;44.870;37.336;2023-07-13T06:43:07;6.80;;;4.70;;
76103;SDS011;64831;44.870;37.336;2023-07-13T06:45:40;9.15;;;4.47;;
76103;SDS011;64831;44.870;37.336;2023-07-13T06:48:11;6.53;;;3.60;;
76103;SDS011;64831;44.870;37.336;2023-07-13T06:50:39;8.03;;;4.67;;
76103;SDS011;64831;44.870;37.336;2023-07-13T06:53:06;6.68;;;4.82;;
76103;SDS011;64831;44.870;37.336;2023-07-13T06:55:32;6.10;;;4.93;;
76103;SDS011;64831;44.870;37.336;2023-07-13T06:57:58;11.02;;;4.75;;
76103;SDS011;64831;44.870;37.336;2023-07-13T07:00:24;12.27;;;4.60;;
76103;SDS011;64831;44.870;37.336;2023-07-13T07:02:50;7.80;;;4.55;;
76103;SDS011;64831;44.870;37.336;2023-07-13T07:05:16;8.45;;;5.57;;
76103;SDS011;64831;44.870;37.336;2023-07-13T07:07:42;8.88;;;4.80;;
76103;SDS011;64831;44.870;37.336;2023-07-13T07:10:08;6.50;;;4.60;;
76103;SDS011;64831;44.870;37.336;2023-07-13T07:12:34;6.13;;;4.47;;
76103;SDS011;64831;44.870;37.336;2023-07-13T07:15:00;5.50;;;4.40;;
76103;SDS011;64831;44.870;37.336;2023-07-13T07:17:26;12.43;;;4.50;;
76103;SDS011;64831;44.870;37.336;2023-07-13T07:19:52;5.07;;;4.57;;
76103;SDS011;64831;44.870;37.336;2023-07-13T07:22:19;9.38;;;3.95;;
76103;SDS011;64831;44.870;37.336;2023-07-13T07:24:46;6.93;;;4.60;;
76103;SDS011;64831;44.870;37.336;2023-07-13T07:27:12;4.40;;;4.00;;
76103;SDS011;64831;44.870;37.336;2023-07-13T07:29:38;8.38;;;4.32;;
76103;SDS011;64831;44.870;37.336;2023-07-13T07:32:04;6.68;;;4.22;;
76103;SDS011;64831;44.870;37.336;2023-07-13T07:34:30;5.93;;;4.18;;
76103;SDS011;64831;44.870;37.336;2023-07-13T07:36:58;6.28;;;3.60;;
76103;SDS011;64831;44.870;37.336;2023-07-13T07:39:26;7.68;;;4.90;;
76103;SDS011;64831;44.870;37.336;2023-07-13T07:41:52;9.90;;;4.63;;
76103;SDS011;64831;44.870;37.336;2023-07-13T07:44:18;7.65;;;4.57;;
76103;SDS011;64831;44.870;37.336;2023-07-13T07:46:44;6.47;;;4.75;;
76103;SDS011;64831;44.870;37.336;2023-07-13T07:49:10;5.07;;;4.10;;
76103;SDS011;64831;44.870;37.336;2023-07-13T07:51:36;3.55;;;3.25;;
76103;SDS011;64831;44.870;37.336;2023-07-13T07:54:03;6.13;;;4.43;;
76103;SDS011;64831;44.870;37.336;2023-07-13T07:56:30;6.72;;;4.32;;
76103;SDS011;64831;44.870;37.336;2023-07-13T07:58:56;5.53;;;4.25;;
76103;SDS011;64831;44.870;37.336;2023-07-13T08:01:23;9.85;;;4.60;;
76103;SDS011;64831;44.870;37.336;2023-07-13T08:03:49;6.35;;;3.85;;
76103;SDS011;64831;44.870;37.336;2023-07-13T08:06:15;5.22;;;4.00;;
76103;SDS011;64831;44.870;37.336;2023-07-13T08:08:41;10.40;;;4.57;;
76103;SDS011;64831;44.870;37.336;2023-07-13T08:11:07;6.05;;;4.60;;
76103;SDS011;64831;44.870;37.336;2023-07-13T08:13:34;6.05;;;4.40;;
76103;SDS011;64831;44.870;37.336;2023-07-13T08:16:00;6.22;;;4.47;;
76103;SDS011;64831;44.870;37.336;2023-07-13T08:18:27;4.60;;;3.85;;
76103;SDS011;64831;44.870;37.336;2023-07-13T08:20:55;7.65;;;4.30;;
76103;SDS011;64831;44.870;37.336;2023-07-13T08:23:22;6.82;;;4.57;;
76103;SDS011;64831;44.870;37.336;2023-07-13T08:25:52;6.03;;;4.32;;
76103;SDS011;64831;44.870;37.336;2023-07-13T08:28:21;10.18;;;3.97;;
76103;SDS011;64831;44.870;37.336;2023-07-13T08:30:47;8.45;;;4.30;;
76103;SDS011;64831;44.870;37.336;2023-07-13T08:33:20;10.75;;;4.32;;
76103;SDS011;64831;44.870;37.336;2023-07-13T08:35:49;6.32;;;4.28;;
76103;SDS011;64831;44.870;37.336;2023-07-13T08:38:16;5.20;;;3.55;;
76103;SDS011;64831;44.870;37.336;2023-07-13T08:40:43;11.32;;;4.57;;
76103;SDS011;64831;44.870;37.336;2023-07-13T08:43:13;5.70;;;4.07;;
76103;SDS011;64831;44.870;37.336;2023-07-13T08:45:57;4.65;;;3.90;;
76103;SDS011;64831;44.870;37.336;2023-07-13T08:48:43;6.10;;;4.40;;
76103;SDS011;64831;44.870;37.336;2023-07-13T08:51:35;7.13;;;4.30;;
76103;SDS011;64831;44.870;37.336;2023-07-13T08:56:47;6.20;;;4.13;;
76103;SDS011;64831;44.870;37.336;2023-07-13T08:59:18;5.07;;;4.00;;
76103;SDS011;64831;44.870;37.336;2023-07-13T09:10:32;3.03;;;2.78;;
76103;SDS011;64831;44.870;37.336;2023-07-13T09:15:50;12.27;;;3.92;;
76103;SDS011;64831;44.870;37.336;2023-07-13T09:18:36;5.80;;;3.95;;
76103;SDS011;64831;44.870;37.336;2023-07-13T09:21:08;7.32;;;4.70;;
76103;SDS011;64831;44.870;37.336;2023-07-13T09:23:44;7.22;;;4.32;;
76103;SDS011;64831;44.870;37.336;2023-07-13T09:26:14;4.35;;;3.80;;
76103;SDS011;64831;44.870;37.336;2023-07-13T09:28:45;7.82;;;4.18;;
76103;SDS011;64831;44.870;37.336;2023-07-13T09:31:14;5.13;;;4.35;;
76103;SDS011;64831;44.870;37.336;2023-07-13T09:36:31;9.38;;;4.38;;
76103;SDS011;64831;44.870;37.336;2023-07-13T09:39:33;7.35;;;4.50;;
76103;SDS011;64831;44.870;37.336;2023-07-13T09:44:54;5.38;;;4.40;;
76103;SDS011;64831;44.870;37.336;2023-07-13T09:47:21;5.90;;;4.35;;
76103;SDS011;64831;44.870;37.336;2023-07-13T09:49:54;6.18;;;4.47;;
76103;SDS011;64831;44.870;37.336;2023-07-13T09:52:24;11.55;;;4.32;;
76103;SDS011;64831;44.870;37.336;2023-07-13T09:54:53;5.88;;;4.45;;
76103;SDS011;64831;44.870;37.336;2023-07-13T09:57:25;8.70;;;4.53;;
76103;SDS011;64831;44.870;37.336;2023-07-13T09:59:53;7.35;;;4.40;;
76103;SDS011;64831;44.870;37.336;2023-07-13T10:02:22;7.78;;;4.88;;
76103;SDS011;64831;44.870;37.336;2023-07-13T10:04:58;6.88;;;4.70;;
76103;SDS011;64831;44.870;37.336;2023-07-13T10:07:26;7.03;;;4.60;;
76103;SDS011;64831;44.870;37.336;2023-07-13T10:09:53;9.35;;;4.78;;
76103;SDS011;64831;44.870;37.336;2023-07-13T10:12:20;9.50;;;5.00;;
76103;SDS011;64831;44.870;37.336;2023-07-13T10:14:48;4.97;;;4.25;;
76103;SDS011;64831;44.870;37.336;2023-07-13T10:17:25;6.93;;;5.15;;
76103;SDS011;64831;44.870;37.336;2023-07-13T10:19:57;9.15;;;5.30;;
76103;SDS011;64831;44.870;37.336;2023-07-13T10:25:23;9.73;;;5.78;;
76103;SDS011;64831;44.870;37.336;2023-07-13T10:27:54;7.85;;;5.30;;
76103;SDS011;64831;44.870;37.336;2023-07-13T10:30:35;7.07;;;5.30;;
76103;SDS011;64831;44.870;37.336;2023-07-13T10:33:08;12.15;;;4.88;;
76103;SDS011;64831;44.870;37.336;2023-07-13T10:35:36;7.28;;;5.10;;
76103;SDS011;64831;44.870;37.336;2023-07-13T10:38:05;8.43;;;5.35;;
76103;SDS011;64831;44.870;37.336;2023-07-13T10:40:43;8.95;;;4.57;;
76103;SDS011;64831;44.870;37.336;2023-07-13T10:43:22;7.57;;;4.65;;
76103;SDS011;64831;44.870;37.336;2023-07-13T10:45:53;6.45;;;4.60;;
76103;SDS011;64831;44.870;37.336;2023-07-13T10:48:20;6.05;;;4.28;;
76103;SDS011;64831;44.870;37.336;2023-07-13T10:50:49;7.53;;;4.88;;
76103;SDS011;64831;44.870;37.336;2023-07-13T10:53:19;6.30;;;4.63;;
76103;SDS011;64831;44.870;37.336;2023-07-13T10:58:40;6.68;;;4.53;;
76103;SDS011;64831;44.870;37.336;2023-07-13T11:01:09;9.02;;;4.70;;
76103;SDS011;64831;44.870;37.336;2023-07-13T11:06:16;8.27;;;4.40;;
76103;SDS011;64831;44.870;37.336;2023-07-13T11:09:17;6.93;;;3.88;;
76103;SDS011;64831;44.870;37.336;2023-07-13T11:11:45;6.75;;;3.90;;
76103;SDS011;64831;44.870;37.336;2023-07-13T11:16:55;5.65;;;3.70;;
76103;SDS011;64831;44.870;37.336;2023-07-13T11:27:27;5.75;;;4.25;;
76103;SDS011;64831;44.870;37.336;2023-07-13T11:32:46;8.23;;;3.28;;
76103;SDS011;64831;44.870;37.336;2023-07-13T11:35:18;9.13;;;3.50;;
76103;SDS011;64831;44.870;37.336;2023-07-13T11:37:51;5.30;;;3.53;;
76103;SDS011;64831;44.870;37.336;2023-07-13T11:40:18;6.03;;;3.60;;
76103;SDS011;64831;44.870;37.336;2023-07-13T11:42:47;8.00;;;4.07;;
76103;SDS011;64831;44.870;37.336;2023-07-13T11:45:20;5.57;;;3.47;;
76103;SDS011;64831;44.870;37.336;2023-07-13T11:47:48;7.55;;;3.80;;
76103;SDS011;64831;44.870;37.336;2023-07-13T11:50:22;5.50;;;3.33;;
76103;SDS011;64831;44.870;37.336;2023-07-13T11:52:49;2.92;;;2.47;;
76103;SDS011;64831;44.870;37.336;2023-07-13T11:55:20;4.03;;;3.10;;
76103;SDS011;64831;44.870;37.336;2023-07-13T11:57:50;4.57;;;3.67;;
76103;SDS011;64831;44.870;37.336;2023-07-13T12:00:21;5.80;;;3.35;;
76103;SDS011;64831;44.870;37.336;2023-07-13T12:02:52;6.82;;;3.60;;
76103;SDS011;64831;44.870;37.336;2023-07-13T12:05:21;4.97;;;3.10;;
76103;SDS011;64831;44.870;37.336;2023-07-13T12:07:48;6.70;;;3.50;;
76103;SDS011;64831;44.870;37.336;2023-07-13T12:12:46;6.60;;;3.40;;
76103;SDS011;64831;44.870;37.336;2023-07-13T12:15:13;6.55;;;3.00;;
76103;SDS011;64831;44.870;37.336;2023-07-13T12:17:39;6.50;;;2.80;;
76103;SDS011;64831;44.870;37.336;2023-07-13T12:20:18;5.38;;;2.80;;
76103;SDS011;64831;44.870;37.336;2023-07-13T12:22:53;6.32;;;3.42;;
76103;SDS011;64831;44.870;37.336;2023-07-13T12:25:20;5.35;;;3.20;;
76103;SDS011;64831;44.870;37.336;2023-07-13T12:27:50;6.40;;;3.20;;
76103;SDS011;64831;44.870;37.336;2023-07-13T12:32:59;4.15;;;2.50;;
76103;SDS011;64831;44.870;37.336;2023-07-13T12:35:38;5.05;;;2.80;;
76103;SDS011;64831;44.870;37.336;2023-07-13T12:38:10;6.38;;;2.88;;
76103;SDS011;64831;44.870;37.336;2023-07-13T12:40:36;4.25;;;3.08;;
76103;SDS011;64831;44.870;37.336;2023-07-13T12:43:03;4.18;;;2.78;;
76103;SDS011;64831;44.870;37.336;2023-07-13T12:45:32;5.40;;;3.00;;
76103;SDS011;64831;44.870;37.336;2023-07-13T12:48:03;4.65;;;2.50;;
76103;SDS011;64831;44.870;37.336;2023-07-13T12:50:36;7.50;;;3.47;;
76103;SDS011;64831;44.870;37.336;2023-07-13T12:53:09;3.72;;;2.25;;
76103;SDS011;64831;44.870;37.336;2023-07-13T12:55:45;8.32;;;3.28;;
76103;SDS011;64831;44.870;37.336;2023-07-13T12:58:16;3.15;;;2.28;;
76103;SDS011;64831;44.870;37.336;2023-07-13T13:00:54;2.50;;;2.25;;
76103;SDS011;64831;44.870;37.336;2023-07-13T13:05:59;3.88;;;2.80;;
76103;SDS011;64831;44.870;37.336;2023-07-13T13:08:25;11.45;;;3.30;;
76103;SDS011;64831;44.870;37.336;2023-07-13T13:10:51;7.07;;;2.70;;
76103;SDS011;64831;44.870;37.336;2023-07-13T13:13:17;10.20;;;2.80;;
76103;SDS011;64831;44.870;37.336;2023-07-13T13:15:43;10.07;;;4.10;;
76103;SDS011;64831;44.870;37.336;2023-07-13T13:18:18;6.07;;;2.90;;
76103;SDS011;64831;44.870;37.336;2023-07-13T13:20:51;5.80;;;2.67;;
76103;SDS011;64831;44.870;37.336;2023-07-13T13:23:26;3.75;;;2.60;;
76103;SDS011;64831;44.870;37.336;2023-07-13T13:25:53;5.22;;;3.03;;
76103;SDS011;64831;44.870;37.336;2023-07-13T13:28:20;7.00;;;3.20;;
76103;SDS011;64831;44.870;37.336;2023-07-13T13:30:47;7.22;;;3.15;;
76103;SDS011;64831;44.870;37.336;2023-07-13T13:33:16;6.75;;;3.35;;
76103;SDS011;64831;44.870;37.336;2023-07-13T13:35:44;7.72;;;3.30;;
76103;SDS011;64831;44.870;37.336;2023-07-13T13:38:14;3.25;;;2.70;;
76103;SDS011;64831;44.870;37.336;2023-07-13T13:40:45;5.60;;;2.85;;
76103;SDS011;64831;44.870;37.336;2023-07-13T13:43:25;7.10;;;2.92;;
76103;SDS011;64831;44.870;37.336;2023-07-13T13:45:53;2.30;;;2.10;;
76103;SDS011;64831;44.870;37.336;2023-07-13T13:48:31;5.82;;;2.78;;
76103;SDS011;64831;44.870;37.336;2023-07-13T13:50:59;4.82;;;2.90;;
76103;SDS011;64831;44.870;37.336;2023-07-13T13:53:26;2.53;;;2.03;;
76103;SDS011;64831;44.870;37.336;2023-07-13T13:55:53;4.03;;;2.70;;
76103;SDS011;64831;44.870;37.336;2023-07-13T13:58:20;4.22;;;2.90;;
76103;SDS011;64831;44.870;37.336;2023-07-13T14:00:46;5.05;;;2.90;;
76103;SDS011;64831;44.870;37.336;2023-07-13T14:03:17;6.25;;;2.72;;
76103;SDS011;64831;44.870;37.336;2023-07-13T14:05:45;3.03;;;1.98;;
76103;SDS011;64831;44.870;37.336;2023-07-13T14:08:13;5.70;;;2.80;;
76103;SDS011;64831;44.870;37.336;2023-07-13T14:10:40;6.85;;;4.18;;
76103;SDS011;64831;44.870;37.336;2023-07-13T14:13:07;4.07;;;2.50;;
76103;SDS011;64831;44.870;37.336;2023-07-13T14:15:44;4.45;;;2.90;;
76103;SDS011;64831;44.870;37.336;2023-07-13T14:18:10;3.40;;;2.38;;
76103;SDS011;64831;44.870;37.336;2023-07-13T14:20:37;3.05;;;2.03;;
76103;SDS011;64831;44.870;37.336;2023-07-13T14:23:03;2.13;;;1.83;;
76103;SDS011;64831;44.870;37.336;2023-07-13T14:25:29;6.70;;;3.17;;
76103;SDS011;64831;44.870;37.336;2023-07-13T14:27:57;3.92;;;2.60;;
76103;SDS011;64831;44.870;37.336;2023-07-13T14:30:24;3.83;;;2.65;;
76103;SDS011;64831;44.870;37.336;2023-07-13T14:32:51;4.80;;;2.72;;
76103;SDS011;64831;44.870;37.336;2023-07-13T14:35:19;3.95;;;2.78;;
76103;SDS011;64831;44.870;37.336;2023-07-13T14:37:48;6.47;;;2.75;;
76103;SDS011;64831;44.870;37.336;2023-07-13T14:40:16;4.25;;;2.20;;
76103;SDS011;64831;44.870;37.336;2023-07-13T14:42:50;3.08;;;2.30;;
76103;SDS011;64831;44.870;37.336;2023-07-13T14:45:17;8.85;;;2.10;;
76103;SDS011;64831;44.870;37.336;2023-07-13T14:47:45;5.32;;;2.60;;
76103;SDS011;64831;44.870;37.336;2023-07-13T14:50:16;3.65;;;2.55;;
76103;SDS011;64831;44.870;37.336;2023-07-13T14:52:47;6.57;;;2.50;;
76103;SDS011;64831;44.870;37.336;2023-07-13T14:55:14;8.90;;;3.00;;
76103;SDS011;64831;44.870;37.336;2023-07-13T14:57:42;6.75;;;2.38;;
76103;SDS011;64831;44.870;37.336;2023-07-13T15:00:15;2.95;;;2.35;;
76103;SDS011;64831;44.870;37.336;2023-07-13T15:02:43;3.92;;;2.60;;
76103;SDS011;64831;44.870;37.336;2023-07-13T15:05:13;3.83;;;2.33;;
76103;SDS011;64831;44.870;37.336;2023-07-13T15:07:41;3.40;;;2.30;;
76103;SDS011;64831;44.870;37.336;2023-07-13T15:12:41;4.22;;;2.55;;
76103;SDS011;64831;44.870;37.336;2023-07-13T15:15:07;4.15;;;2.60;;
76103;SDS011;64831;44.870;37.336;2023-07-13T15:22:37;3.00;;;2.45;;
76103;SDS011;64831;44.870;37.336;2023-07-13T15:25:02;8.80;;;2.63;;
76103;SDS011;64831;44.870;37.336;2023-07-13T15:27:30;5.20;;;2.72;;
76103;SDS011;64831;44.870;37.336;2023-07-13T15:29:57;6.63;;;2.80;;
76103;SDS011;64831;44.870;37.336;2023-07-13T15:32:23;2.55;;;1.60;;
76103;SDS011;64831;44.870;37.336;2023-07-13T15:35:31;4.05;;;2.40;;